Time;durP1;ratioP1;P1;durP2;ratioP2;P2;SDS_P1;SDS_P2;PMS_P1;PMS_P2;Temp;Humidity;BMP_temperature;BMP_pressure;BME280_temperature;BME280_humidity;BME280_pressure;Samples;Min_cycle;Max_cycle;Signal;HPM_P1;HPM_P2
2022/04/02 00:01:43;;;;;;;25.85;17.55;;;13.10;99.90;;;;;;4994007;28;20023;-54
2022/04/02 00:04:09;;;;;;;29.85;20.52;;;13.10;99.90;;;;;;4993856;28;20030;-56
2022/04/02 00:06:36;;;;;;;28.83;20.20;;;13.00;99.90;;;;;;4994030;28;20419;-53
2022/04/02 00:09:03;;;;;;;27.20;19.27;;;12.90;99.90;;;;;;4994066;28;20058;-55
2022/04/02 00:11:29;;;;;;;23.88;17.90;;;12.90;99.90;;;;;;4994165;28;20106;-54
2022/04/02 00:13:56;;;;;;;22.45;17.98;;;12.90;99.90;;;;;;4993630;28;20515;-52
2022/04/02 00:16:22;;;;;;;19.98;15.90;;;13.00;99.90;;;;;;4993703;28;20053;-55
2022/04/02 00:18:50;;;;;;;22.15;16.95;;;13.00;99.90;;;;;;4993783;28;20018;-54
2022/04/02 00:21:17;;;;;;;20.85;15.65;;;13.10;99.90;;;;;;4993958;28;20046;-53
2022/04/02 00:23:46;;;;;;;18.95;15.00;;;13.10;99.90;;;;;;4993526;28;20481;-55
2022/04/02 00:26:13;;;;;;;18.67;14.02;;;13.00;99.90;;;;;;4993741;28;20026;-55
2022/04/02 00:28:40;;;;;;;19.75;15.07;;;13.10;99.90;;;;;;4993881;28;20027;-55
2022/04/02 00:31:10;;;;;;;25.15;19.05;;;13.10;99.90;;;;;;4993905;28;20110;-55
2022/04/02 00:33:37;;;;;;;27.33;19.83;;;13.10;99.90;;;;;;4992391;28;20389;-53
2022/04/02 00:36:04;;;;;;;25.60;20.00;;;13.00;99.90;;;;;;4993533;28;20170;-53
2022/04/02 00:38:30;;;;;;;24.15;19.52;;;13.00;99.90;;;;;;4993644;28;20065;-56
2022/04/02 00:40:55;;;;;;;30.60;22.90;;;12.90;99.90;;;;;;4993820;28;20049;-52
2022/04/02 00:43:22;;;;;;;23.20;19.23;;;12.80;99.90;;;;;;4993625;28;20033;-55
2022/04/02 00:45:48;;;;;;;19.95;16.10;;;12.80;99.90;;;;;;4993567;28;20034;-55
2022/04/02 00:48:14;;;;;;;17.77;15.05;;;12.90;99.90;;;;;;4993788;28;20076;-56
2022/04/02 00:50:40;;;;;;;22.35;17.40;;;13.00;99.90;;;;;;4993601;28;20504;-52
2022/04/02 00:53:06;;;;;;;21.02;16.08;;;13.10;99.90;;;;;;4993553;28;20132;-54
2022/04/02 00:55:32;;;;;;;22.85;15.90;;;13.00;99.90;;;;;;4993400;28;20026;-54
2022/04/02 00:58:00;;;;;;;16.88;14.30;;;13.10;99.90;;;;;;4993517;28;20033;-55
2022/04/02 01:00:25;;;;;;;17.42;13.80;;;13.10;99.90;;;;;;4993396;28;20568;-56
2022/04/02 01:02:52;;;;;;;14.40;11.30;;;13.20;99.90;;;;;;4993307;28;20026;-56
2022/04/02 01:05:17;;;;;;;15.60;13.90;;;13.20;99.90;;;;;;4993259;28;20034;-54
2022/04/02 01:07:43;;;;;;;15.80;13.25;;;13.30;99.90;;;;;;4993736;28;20022;-53
2022/04/02 01:10:09;;;;;;;13.57;11.43;;;13.30;99.90;;;;;;4993384;28;20492;-55
2022/04/02 01:12:35;;;;;;;14.00;11.63;;;13.30;99.90;;;;;;4993331;28;20034;-53
2022/04/02 01:15:00;;;;;;;19.35;15.40;;;13.40;99.90;;;;;;4993441;28;20030;-52
2022/04/02 01:17:26;;;;;;;14.52;11.55;;;13.40;99.90;;;;;;4993236;28;20046;-49
2022/04/02 01:19:53;;;;;;;14.70;12.52;;;13.30;99.90;;;;;;4993091;28;20474;-50
2022/04/02 01:22:19;;;;;;;14.30;12.15;;;13.40;99.90;;;;;;4993233;28;20031;-53
2022/04/02 01:24:45;;;;;;;13.65;11.00;;;13.40;99.90;;;;;;4994302;28;20030;-49
2022/04/02 01:27:11;;;;;;;12.23;9.70;;;13.40;99.90;;;;;;4996711;28;20496;-54
2022/04/02 01:29:36;;;;;;;16.92;12.80;;;13.50;99.90;;;;;;4996970;28;20157;-50
2022/04/02 01:32:02;;;;;;;14.38;11.43;;;13.40;99.90;;;;;;4997034;28;20026;-49
2022/04/02 01:34:32;;;;;;;19.60;15.65;;;13.40;99.90;;;;;;4996417;28;20026;-53
2022/04/02 01:36:58;;;;;;;16.02;12.43;;;13.30;99.90;;;;;;4996631;28;20030;-51
2022/04/02 01:39:23;;;;;;;17.65;15.30;;;13.30;99.90;;;;;;4996649;28;20036;-54
2022/04/02 01:41:49;;;;;;;20.95;14.88;;;13.20;99.90;;;;;;4996403;28;20122;-53
2022/04/02 01:44:15;;;;;;;16.42;12.90;;;13.10;99.90;;;;;;4996439;28;20058;-54
2022/04/02 01:46:40;;;;;;;21.23;16.02;;;12.90;99.90;;;;;;4996449;28;20026;-51
2022/04/02 01:49:06;;;;;;;17.77;14.20;;;12.60;99.90;;;;;;4996122;28;20033;-52
2022/04/02 01:51:32;;;;;;;18.42;14.10;;;12.50;99.90;;;;;;4996496;28;20058;-55
2022/04/02 01:53:58;;;;;;;19.30;14.65;;;12.50;99.90;;;;;;4996383;28;20027;-51
2022/04/02 01:56:24;;;;;;;16.45;12.05;;;12.50;99.90;;;;;;4996468;28;20019;-55
2022/04/02 01:58:49;;;;;;;19.45;13.30;;;12.50;99.90;;;;;;4996131;28;20089;-52
2022/04/02 02:01:15;;;;;;;13.55;11.25;;;12.60;99.90;;;;;;4996114;28;20041;-54
2022/04/02 02:03:41;;;;;;;14.75;11.38;;;12.70;99.90;;;;;;4996328;28;20113;-55
2022/04/02 02:06:07;;;;;;;13.75;9.93;;;12.80;99.90;;;;;;4996052;28;20433;-51
2022/04/02 02:08:33;;;;;;;12.60;10.27;;;12.80;99.90;;;;;;4996336;28;20023;-52
2022/04/02 02:10:59;;;;;;;12.30;9.98;;;12.90;99.90;;;;;;4996111;28;20046;-52
2022/04/02 02:13:24;;;;;;;14.35;10.25;;;12.90;99.90;;;;;;4995930;28;20057;-53
2022/04/02 02:15:50;;;;;;;14.27;10.30;;;12.80;99.90;;;;;;4995670;28;20502;-53
2022/04/02 02:18:16;;;;;;;14.35;10.88;;;12.80;99.90;;;;;;4995764;28;20082;-53
2022/04/02 02:20:43;;;;;;;13.57;10.30;;;12.80;99.90;;;;;;4995703;28;20073;-55
2022/04/02 02:23:09;;;;;;;14.45;9.57;;;12.80;99.90;;;;;;4995693;28;20065;-50
2022/04/02 02:25:35;;;;;;;15.40;10.35;;;12.80;99.90;;;;;;4995688;28;20030;-52
2022/04/02 02:28:01;;;;;;;11.23;8.45;;;12.70;99.90;;;;;;4995644;28;20029;-54
2022/04/02 02:30:27;;;;;;;11.68;8.15;;;12.70;99.90;;;;;;4995582;28;20486;-50
2022/04/02 02:35:49;;;;;;;14.18;9.13;;;12.70;99.90;;;;;;4995683;28;20109;-53
2022/04/02 02:35:50;;;;;;;16.40;11.02;;;12.80;99.90;;;;;;4995289;28;20033;-54
2022/04/02 02:38:19;;;;;;;16.58;11.70;;;12.70;99.90;;;;;;4995469;28;20033;-56
2022/04/02 02:40:45;;;;;;;18.75;12.75;;;12.50;99.90;;;;;;4995392;28;20030;-54
2022/04/02 02:43:11;;;;;;;17.98;11.25;;;12.30;99.90;;;;;;4995328;28;20038;-50
2022/04/02 02:45:37;;;;;;;16.98;11.30;;;12.30;99.90;;;;;;4995356;28;20417;-55
2022/04/02 02:48:04;;;;;;;16.65;11.48;;;12.30;99.90;;;;;;4995352;28;20081;-51
2022/04/02 02:50:30;;;;;;;15.73;10.82;;;12.30;99.90;;;;;;4995535;28;20026;-50
2022/04/02 02:52:56;;;;;;;21.38;13.73;;;12.30;99.90;;;;;;4995258;28;20026;-52
2022/04/02 02:55:21;;;;;;;22.63;15.95;;;12.30;99.90;;;;;;4995408;28;20484;-52
2022/04/02 02:57:47;;;;;;;18.52;12.48;;;12.20;99.90;;;;;;4995007;28;20049;-54
2022/04/02 03:00:15;;;;;;;18.75;12.57;;;12.10;99.90;;;;;;4994940;28;20026;-55
2022/04/02 03:02:41;;;;;;;17.83;12.70;;;12.00;99.90;;;;;;4994707;28;20031;-54
2022/04/02 03:05:12;;;;;;;36.83;22.58;;;12.00;99.90;;;;;;4994901;28;20084;-53
2022/04/02 03:07:48;;;;;;;44.20;22.50;;;11.90;99.90;;;;;;4994980;28;20027;-55
2022/04/02 03:10:16;;;;;;;29.55;17.50;;;11.80;99.90;;;;;;4994881;28;20080;-53
2022/04/02 03:12:41;;;;;;;24.25;14.23;;;11.60;99.90;;;;;;4995139;28;20053;-53
2022/04/02 03:15:08;;;;;;;18.20;12.35;;;11.40;99.90;;;;;;4994650;28;20453;-53
2022/04/02 03:17:33;;;;;;;17.45;11.77;;;11.50;99.90;;;;;;4994720;28;20085;-56
2022/04/02 03:20:00;;;;;;;16.08;11.13;;;11.60;99.90;;;;;;4994638;28;20425;-54
2022/04/02 03:22:27;;;;;;;17.63;10.48;;;11.80;99.90;;;;;;4994763;28;20039;-54
2022/04/02 03:24:53;;;;;;;16.40;10.70;;;12.00;99.90;;;;;;4994853;28;20492;-51
2022/04/02 03:27:19;;;;;;;14.30;9.70;;;12.00;99.90;;;;;;4994710;28;20041;-52
2022/04/02 03:29:45;;;;;;;13.88;9.00;;;12.10;99.90;;;;;;4994650;28;20022;-52
2022/04/02 03:32:11;;;;;;;14.18;9.68;;;12.20;99.90;;;;;;4994313;28;20033;-53
2022/04/02 03:34:36;;;;;;;19.05;11.95;;;12.20;99.90;;;;;;4994368;28;20026;-53
2022/04/02 03:37:02;;;;;;;26.02;14.75;;;12.20;99.90;;;;;;4994887;28;20022;-52
2022/04/02 03:39:28;;;;;;;18.52;11.07;;;12.00;99.90;;;;;;4993152;28;20027;-53
2022/04/02 03:41:54;;;;;;;16.75;10.70;;;11.90;99.90;;;;;;4994294;28;20049;-53
2022/04/02 03:44:19;;;;;;;17.30;10.32;;;11.90;99.90;;;;;;4994312;28;20034;-52
2022/04/02 03:49:29;;;;;;;25.52;14.98;;;11.90;99.90;;;;;;4994278;28;20065;-51
2022/04/02 03:51:55;;;;;;;22.00;13.55;;;11.80;99.90;;;;;;4994292;28;20027;-52
2022/04/02 03:54:21;;;;;;;14.50;11.15;;;11.70;99.90;;;;;;4994113;28;20392;-50
2022/04/02 03:56:48;;;;;;;22.98;12.73;;;11.80;99.90;;;;;;4994410;28;20121;-53
2022/04/02 03:59:13;;;;;;;17.83;12.25;;;11.90;99.90;;;;;;4994348;28;20493;-55
2022/04/02 04:01:39;;;;;;;18.48;10.93;;;12.00;99.90;;;;;;4994109;28;20057;-54
2022/04/02 04:04:05;;;;;;;13.85;9.80;;;12.10;99.90;;;;;;4993877;28;20101;-53
2022/04/02 04:06:34;;;;;;;14.40;10.10;;;12.20;99.90;;;;;;4993925;28;20026;-54
2022/04/02 04:09:00;;;;;;;14.52;8.90;;;12.30;99.90;;;;;;4994253;28;20385;-52
2022/04/02 04:11:26;;;;;;;19.38;10.52;;;12.30;99.90;;;;;;4994099;28;20034;-52
2022/04/02 04:13:53;;;;;;;18.63;12.40;;;12.30;99.90;;;;;;4993879;28;20493;-52
2022/04/02 04:16:19;;;;;;;17.30;10.23;;;12.30;99.90;;;;;;4993863;28;20058;-55
2022/04/02 04:18:46;;;;;;;12.43;9.65;;;12.20;99.90;;;;;;4993795;28;20026;-54
2022/04/02 04:21:14;;;;;;;15.90;9.70;;;12.30;99.90;;;;;;4994103;28;20076;-51
2022/04/02 04:23:43;;;;;;;16.98;11.20;;;12.30;99.90;;;;;;4993733;28;20466;-53
2022/04/02 04:26:10;;;;;;;15.85;11.65;;;12.30;99.90;;;;;;4993684;28;20026;-52
2022/04/02 04:28:39;;;;;;;15.73;9.93;;;12.30;99.90;;;;;;4993843;28;20393;-54
2022/04/02 04:31:05;;;;;;;13.25;9.10;;;12.30;99.90;;;;;;4993745;28;20019;-53
2022/04/02 04:33:31;;;;;;;11.60;9.02;;;12.30;99.90;;;;;;4993648;28;20033;-54
2022/04/02 04:35:57;;;;;;;12.57;8.30;;;12.40;99.90;;;;;;4993863;28;20026;-54
2022/04/02 04:38:23;;;;;;;11.35;8.32;;;12.40;99.90;;;;;;4993719;28;20026;-52
2022/04/02 04:40:49;;;;;;;9.82;7.13;;;12.40;99.90;;;;;;4993613;28;20050;-52
2022/04/02 04:43:15;;;;;;;12.18;9.15;;;12.50;99.90;;;;;;4993687;28;20504;-52
2022/04/02 04:45:41;;;;;;;10.43;7.68;;;12.50;99.90;;;;;;4993658;28;20033;-52
2022/04/02 04:48:07;;;;;;;9.63;7.13;;;12.50;99.90;;;;;;4993517;28;20069;-54
2022/04/02 04:50:34;;;;;;;11.02;7.75;;;12.50;99.90;;;;;;4993702;28;20473;-51
2022/04/02 04:53:00;;;;;;;11.90;7.20;;;12.60;99.90;;;;;;4993640;28;20058;-52
2022/04/02 04:55:26;;;;;;;11.05;8.43;;;12.70;99.90;;;;;;4993734;28;20049;-55
2022/04/02 04:57:51;;;;;;;10.98;7.65;;;12.70;99.90;;;;;;4993316;28;20453;-55
2022/04/02 05:00:17;;;;;;;12.13;8.52;;;12.70;99.90;;;;;;4995351;28;20023;-53
2022/04/02 05:02:46;;;;;;;11.40;7.93;;;12.60;99.90;;;;;;4997156;28;20034;-51
2022/04/02 05:05:12;;;;;;;11.52;8.50;;;12.70;99.90;;;;;;4997364;28;20032;-52
2022/04/02 05:07:41;;;;;;;10.00;7.85;;;12.60;99.90;;;;;;4997458;28;20461;-52
2022/04/02 05:10:09;;;;;;;10.45;7.55;;;12.60;99.90;;;;;;4997141;28;20031;-55
2022/04/02 05:12:38;;;;;;;9.48;6.55;;;12.60;99.90;;;;;;4996895;28;20080;-52
2022/04/02 05:15:05;;;;;;;8.80;5.95;;;12.60;99.90;;;;;;4997143;28;20477;-54
2022/04/02 05:17:31;;;;;;;7.15;5.93;;;12.50;99.90;;;;;;4996790;28;20137;-55
2022/04/02 05:19:57;;;;;;;6.40;5.10;;;12.40;99.90;;;;;;4996937;28;20599;-54
2022/04/02 05:22:23;;;;;;;7.07;5.25;;;12.40;99.90;;;;;;4996965;28;20101;-54
2022/04/02 05:24:49;;;;;;;4.85;4.15;;;12.30;99.90;;;;;;4996927;28;20488;-53
2022/04/02 05:27:15;;;;;;;6.32;5.07;;;12.40;99.90;;;;;;4996602;28;20477;-55
2022/04/02 05:29:40;;;;;;;5.55;5.03;;;12.50;99.90;;;;;;4996744;28;20034;-54
2022/04/02 05:32:07;;;;;;;5.55;4.60;;;12.40;99.90;;;;;;4996863;28;20030;-54
2022/04/02 05:34:32;;;;;;;5.72;5.13;;;12.30;99.90;;;;;;4996575;28;20027;-53
2022/04/02 05:36:59;;;;;;;5.63;5.03;;;12.40;99.90;;;;;;4996784;28;20022;-56
2022/04/02 05:39:24;;;;;;;5.05;4.30;;;12.30;99.90;;;;;;4996887;28;20030;-54
2022/04/02 05:41:51;;;;;;;4.20;3.80;;;12.20;99.90;;;;;;4996252;28;20473;-56
2022/04/02 05:44:17;;;;;;;4.30;3.70;;;12.20;99.90;;;;;;4996347;28;20042;-56
2022/04/02 05:46:43;;;;;;;7.15;6.45;;;12.30;99.90;;;;;;4996432;28;20078;-52
2022/04/02 05:49:09;;;;;;;7.05;6.03;;;12.30;99.90;;;;;;4996924;28;20023;-53
2022/04/02 05:51:35;;;;;;;6.50;5.90;;;12.30;99.90;;;;;;4996669;28;20080;-55
2022/04/02 05:54:01;;;;;;;6.63;6.03;;;12.20;99.90;;;;;;4996319;28;20489;-53
2022/04/02 05:56:27;;;;;;;4.97;4.53;;;12.20;99.90;;;;;;4996298;28;20061;-54
2022/04/02 05:58:54;;;;;;;7.00;6.30;;;12.30;99.90;;;;;;4996542;28;20113;-51
2022/04/02 06:01:20;;;;;;;6.32;5.72;;;12.40;99.90;;;;;;4996122;28;20225;-55
2022/04/02 06:03:47;;;;;;;6.72;5.80;;;12.40;99.90;;;;;;4996116;28;20144;-52
2022/04/02 06:06:13;;;;;;;7.63;6.85;;;12.40;99.90;;;;;;4996078;28;20022;-53
2022/04/02 06:08:39;;;;;;;6.55;5.95;;;12.40;99.90;;;;;;4996070;28;20022;-56
2022/04/02 06:11:07;;;;;;;6.07;5.10;;;12.50;99.90;;;;;;4995490;28;20030;-54
2022/04/02 06:13:34;;;;;;;5.70;5.20;;;12.50;99.90;;;;;;4995855;28;20061;-56
2022/04/02 06:16:00;;;;;;;5.65;5.15;;;12.50;99.90;;;;;;4995932;28;20068;-55
2022/04/02 06:18:25;;;;;;;6.57;5.57;;;12.70;99.90;;;;;;4995906;28;20465;-55
2022/04/02 06:20:51;;;;;;;6.50;5.50;;;12.70;99.90;;;;;;4996294;28;20428;-54
2022/04/02 06:23:18;;;;;;;8.15;7.13;;;12.80;99.90;;;;;;4995712;28;20477;-56
2022/04/02 06:25:44;;;;;;;8.52;7.43;;;12.90;99.90;;;;;;4995649;28;20038;-55
2022/04/02 06:28:10;;;;;;;7.95;7.15;;;12.80;99.90;;;;;;4995883;28;20018;-55
2022/04/02 06:30:36;;;;;;;7.60;6.50;;;12.60;99.90;;;;;;4995631;28;20022;-52
2022/04/02 06:33:03;;;;;;;7.85;6.20;;;12.60;99.90;;;;;;4995684;28;20041;-55
2022/04/02 06:35:29;;;;;;;7.82;7.03;;;12.70;99.90;;;;;;4995722;28;20029;-56
2022/04/02 06:37:56;;;;;;;8.00;7.13;;;12.70;99.90;;;;;;4995480;28;20084;-55
2022/04/02 06:40:23;;;;;;;8.98;7.50;;;12.60;99.90;;;;;;4995227;28;20033;-52
2022/04/02 06:42:49;;;;;;;8.82;6.60;;;12.60;99.90;;;;;;4995338;28;20030;-54
2022/04/02 06:45:15;;;;;;;7.80;6.70;;;12.70;99.90;;;;;;4995347;28;20030;-54
2022/04/02 06:47:41;;;;;;;8.90;7.43;;;12.70;99.90;;;;;;4995337;28;20080;-54
2022/04/02 06:50:09;;;;;;;8.40;7.53;;;12.70;99.90;;;;;;4995261;28;20101;-52
2022/04/02 06:52:36;;;;;;;7.55;6.70;;;12.60;99.90;;;;;;4995293;28;20018;-56
2022/04/02 06:55:02;;;;;;;6.88;6.18;;;12.60;99.90;;;;;;4995088;28;20050;-54
2022/04/02 06:57:28;;;;;;;6.50;5.75;;;12.60;99.90;;;;;;4995107;28;20027;-54
2022/04/02 06:59:54;;;;;;;5.75;5.18;;;12.70;99.90;;;;;;4994989;28;20030;-56
2022/04/02 07:02:20;;;;;;;6.95;6.10;;;12.70;99.90;;;;;;4995163;28;20469;-56
2022/04/02 07:04:46;;;;;;;5.95;5.35;;;12.80;99.90;;;;;;4995127;28;20026;-54
2022/04/02 07:07:12;;;;;;;8.13;6.53;;;12.80;99.90;;;;;;4994790;28;20032;-52
2022/04/02 07:09:38;;;;;;;5.60;4.97;;;12.70;99.90;;;;;;4994832;28;20028;-56
2022/04/02 07:12:04;;;;;;;5.50;4.75;;;12.70;99.90;;;;;;4995116;28;20018;-53
2022/04/02 07:14:30;;;;;;;6.28;4.95;;;12.70;99.90;;;;;;4995016;28;20022;-51
2022/04/02 07:16:56;;;;;;;7.45;5.53;;;12.90;99.90;;;;;;4994688;28;20448;-56
2022/04/02 07:19:25;;;;;;;7.40;6.20;;;12.90;99.90;;;;;;4994711;28;20026;-54
2022/04/02 07:21:53;;;;;;;4.80;4.28;;;13.00;99.90;;;;;;4994251;28;20039;-55
2022/04/02 07:24:20;;;;;;;7.78;6.68;;;13.00;99.90;;;;;;4994218;28;20485;-54
2022/04/02 07:26:46;;;;;;;9.27;7.00;;;13.10;99.90;;;;;;4994527;28;20370;-52
2022/04/02 07:29:15;;;;;;;8.30;7.38;;;13.00;99.90;;;;;;4994734;28;20033;-53
2022/04/02 07:31:45;;;;;;;7.93;6.72;;;12.80;99.90;;;;;;4994604;28;20027;-53
2022/04/02 07:34:13;;;;;;;12.15;9.20;;;12.70;99.90;;;;;;4994481;28;20030;-56
2022/04/02 07:36:54;;;;;;;13.63;10.95;;;12.70;99.90;;;;;;4994317;28;20032;-55
2022/04/02 07:39:44;;;;;;;12.32;11.02;;;12.40;99.90;;;;;;4994492;28;20018;-55
2022/04/02 07:42:32;;;;;;;19.25;16.17;;;12.20;99.90;;;;;;4994253;28;20026;-54
2022/04/02 07:45:13;;;;;;;16.45;12.75;;;12.00;99.90;;;;;;4994441;28;20513;-55
2022/04/02 07:47:43;;;;;;;14.40;11.95;;;11.80;99.90;;;;;;4994346;28;20023;-56
2022/04/02 07:50:14;;;;;;;14.20;11.15;;;11.80;99.90;;;;;;4994161;28;20073;-56
2022/04/02 07:52:45;;;;;;;13.88;11.40;;;11.70;99.90;;;;;;4994112;28;20101;-53
2022/04/02 07:55:12;;;;;;;14.23;12.45;;;11.80;99.90;;;;;;4994227;28;20077;-53
2022/04/02 07:57:46;;;;;;;14.77;11.80;;;11.60;99.90;;;;;;4994080;28;20018;-55
2022/04/02 08:00:14;;;;;;;17.70;13.45;;;11.60;99.90;;;;;;4994246;28;20033;-53
2022/04/02 08:02:45;;;;;;;15.48;11.75;;;11.70;99.90;;;;;;4993942;28;20069;-54
2022/04/02 08:05:19;;;;;;;14.60;10.88;;;12.00;99.90;;;;;;4994277;28;20110;-56
2022/04/02 08:07:49;;;;;;;17.25;13.95;;;12.10;99.90;;;;;;4994098;28;20377;-53
2022/04/02 08:10:20;;;;;;;14.15;12.05;;;12.20;99.90;;;;;;4993861;28;20032;-57
2022/04/02 08:12:47;;;;;;;11.82;10.05;;;12.10;99.90;;;;;;4994059;28;20193;-53
2022/04/02 08:15:18;;;;;;;12.82;10.30;;;12.00;99.90;;;;;;4993715;28;20496;-52
2022/04/02 08:17:54;;;;;;;13.68;10.95;;;12.10;99.90;;;;;;4993837;28;20027;-56
2022/04/02 08:20:21;;;;;;;17.70;13.43;;;12.10;99.90;;;;;;4993976;28;20027;-54
2022/04/02 08:22:47;;;;;;;12.75;10.50;;;12.10;99.90;;;;;;4993733;28;20034;-55
2022/04/02 08:25:14;;;;;;;12.40;10.38;;;12.10;99.90;;;;;;4993822;28;20015;-53
2022/04/02 08:28:05;;;;;;;13.70;10.20;;;12.20;99.90;;;;;;4994094;28;20029;-56
2022/04/02 08:30:49;;;;;;;12.10;9.38;;;12.10;99.90;;;;;;4994035;28;20437;-56
2022/04/02 08:33:41;;;;;;;13.00;9.73;;;12.30;99.90;;;;;;4993736;28;20041;-55
2022/04/02 08:36:19;;;;;;;10.32;8.57;;;12.40;99.90;;;;;;4997561;28;20033;-56
2022/04/02 08:39:18;;;;;;;10.57;9.23;;;12.60;99.90;;;;;;4997958;28;20046;-52
2022/04/02 08:42:02;;;;;;;15.65;11.32;;;12.40;99.90;;;;;;4997635;28;20045;-56
2022/04/02 08:44:57;;;;;;;16.40;11.63;;;12.40;99.90;;;;;;4997669;28;20034;-57
2022/04/02 08:47:29;;;;;;;11.68;9.98;;;12.60;99.90;;;;;;4997576;28;20022;-53
2022/04/02 08:50:10;;;;;;;14.27;11.45;;;12.60;99.90;;;;;;4997324;28;20077;-56
2022/04/02 08:52:51;;;;;;;14.88;12.60;;;12.80;99.90;;;;;;4997528;28;20026;-55
2022/04/02 08:55:20;;;;;;;10.98;9.88;;;13.20;99.90;;;;;;4997447;28;20025;-54
2022/04/02 08:57:51;;;;;;;11.75;10.07;;;13.40;99.90;;;;;;4997614;28;20029;-55
2022/04/02 09:00:24;;;;;;;14.45;11.93;;;13.70;99.90;;;;;;4997555;28;20077;-56
2022/04/02 09:03:14;;;;;;;12.35;10.05;;;14.20;99.90;;;;;;4997119;28;20046;-54
2022/04/02 09:05:40;;;;;;;11.70;10.15;;;15.20;99.90;;;;;;4997124;28;20034;-56
2022/04/02 09:08:33;;;;;;;11.48;10.27;;;16.40;99.90;;;;;;4997127;28;20027;-56
2022/04/02 09:11:20;;;;;;;12.88;11.27;;;17.00;99.90;;;;;;4997201;28;20061;-57
2022/04/02 09:14:08;;;;;;;12.73;11.20;;;16.70;99.30;;;;;;4997270;28;20027;-58
2022/04/02 09:17:01;;;;;;;11.82;10.18;;;16.50;99.90;;;;;;4996748;28;20054;-56
2022/04/02 09:19:50;;;;;;;14.03;12.10;;;16.70;99.90;;;;;;4996804;28;20480;-54
2022/04/02 09:22:36;;;;;;;11.43;10.23;;;16.50;99.90;;;;;;4997206;28;20213;-56
2022/04/02 09:25:39;;;;;;;13.02;11.27;;;16.40;99.90;;;;;;4997082;28;20034;-55
2022/04/02 09:28:15;;;;;;;13.88;12.10;;;16.60;97.40;;;;;;4996828;28;20033;-53
2022/04/02 09:31:02;;;;;;;9.73;8.65;;;16.50;99.90;;;;;;4996745;28;20363;-56
2022/04/02 09:33:30;;;;;;;9.38;8.43;;;16.80;99.90;;;;;;4996473;28;20034;-56
2022/04/02 09:36:35;;;;;;;9.80;8.80;;;17.10;99.30;;;;;;4996722;28;20033;-51
2022/04/02 09:39:03;;;;;;;;;;;17.20;98.20;;;;;;4997347;28;20049;-57
2022/04/02 09:42:00;;;;;;;12.93;11.30;;;17.10;94.70;;;;;;4996887;28;19905;-55
2022/04/02 09:44:49;;;;;;;12.15;10.88;;;16.90;96.00;;;;;;4996473;28;20389;-51
2022/04/02 09:47:19;;;;;;;11.43;9.52;;;16.80;99.30;;;;;;4996078;28;20030;-57
2022/04/02 09:50:13;;;;;;;12.07;10.70;;;16.80;98.90;;;;;;4996296;28;20088;-54
2022/04/02 09:52:50;;;;;;;10.50;9.45;;;17.00;97.60;;;;;;4996383;28;20477;-57
2022/04/02 09:55:21;;;;;;;11.07;9.30;;;16.50;95.40;;;;;;4996634;28;20114;-56
2022/04/02 09:58:15;;;;;;;9.73;8.63;;;16.40;97.60;;;;;;4996287;28;20022;-55
2022/04/02 10:01:02;;;;;;;11.23;8.65;;;16.60;97.00;;;;;;4996104;28;20026;-56
2022/04/02 10:04:05;;;;;;;8.32;7.30;;;16.70;96.90;;;;;;4995949;28;20070;-55
2022/04/02 10:06:42;;;;;;;8.70;7.38;;;16.60;95.60;;;;;;4996234;28;20069;-55
2022/04/02 10:09:16;;;;;;;9.05;7.47;;;16.60;98.30;;;;;;4995957;28;20030;-53
2022/04/02 10:12:00;;;;;;;8.20;7.10;;;16.60;97.90;;;;;;4996163;28;20073;-55
2022/04/02 10:14:29;;;;;;;9.35;8.15;;;16.50;98.40;;;;;;4995910;28;20026;-57
2022/04/02 10:17:06;;;;;;;16.52;13.90;;;16.20;98.90;;;;;;4995577;28;20528;-56
2022/04/02 10:19:41;;;;;;;19.88;16.35;;;15.00;99.90;;;;;;4995891;28;20386;-55
2022/04/02 10:22:12;;;;;;;21.38;17.45;;;14.40;99.90;;;;;;4995956;28;20034;-57
2022/04/02 10:24:38;;;;;;;24.33;18.05;;;13.30;99.90;;;;;;4995679;28;20026;-56
2022/04/02 10:27:11;;;;;;;15.32;10.63;;;12.50;99.90;;;;;;4995705;28;20086;-53
2022/04/02 10:30:02;;;;;;;11.98;7.53;;;11.90;99.90;;;;;;4995999;28;20030;-55
2022/04/02 10:32:43;;;;;;;11.70;7.53;;;11.50;99.90;;;;;;4995619;28;20093;-51
2022/04/02 10:35:11;;;;;;;17.77;11.18;;;11.20;99.90;;;;;;4995731;28;20113;-54
2022/04/02 10:37:41;;;;;;;10.65;6.32;;;11.10;99.90;;;;;;4995492;28;20034;-55
2022/04/02 10:40:12;;;;;;;8.15;5.88;;;10.50;99.90;;;;;;4995572;28;20050;-54
2022/04/02 10:42:57;;;;;;;4.32;3.47;;;9.80;99.90;;;;;;4995399;28;20033;-55
2022/04/02 10:45:27;;;;;;;5.82;3.80;;;9.00;99.90;;;;;;4995545;28;20046;-53
2022/04/02 10:48:02;;;;;;;6.32;4.82;;;8.50;99.90;;;;;;4995508;28;20443;-55
2022/04/02 10:50:29;;;;;;;6.00;3.70;;;8.40;99.90;;;;;;4995278;28;20022;-51
2022/04/02 10:53:01;;;;;;;6.88;4.00;;;8.30;99.90;;;;;;4995578;28;20038;-54
2022/04/02 10:55:28;;;;;;;8.02;4.93;;;8.50;99.90;;;;;;4995196;28;20081;-53
2022/04/02 10:57:59;;;;;;;8.65;5.75;;;8.70;99.90;;;;;;4995500;28;20026;-56
2022/04/02 11:00:27;;;;;;;4.43;3.30;;;8.80;99.90;;;;;;4994907;28;20117;-51
2022/04/02 11:03:03;;;;;;;2.22;1.60;;;8.70;99.90;;;;;;4995009;28;20035;-51
2022/04/02 11:05:38;;;;;;;3.53;2.13;;;8.20;99.90;;;;;;4995264;28;20072;-52
2022/04/02 11:08:11;;;;;;;2.88;1.98;;;8.00;99.90;;;;;;4994868;28;20105;-49
2022/04/02 11:10:37;;;;;;;2.35;2.15;;;7.80;99.90;;;;;;4994934;28;20489;-53
2022/04/02 11:13:06;;;;;;;3.40;1.85;;;8.00;99.90;;;;;;4994979;28;20105;-52
2022/04/02 11:15:40;;;;;;;3.65;2.30;;;7.90;99.90;;;;;;4994651;28;20058;-54
2022/04/02 11:18:17;;;;;;;1.92;1.73;;;7.90;99.90;;;;;;4995116;28;20428;-53
2022/04/02 11:20:43;;;;;;;3.17;2.30;;;7.80;99.90;;;;;;4994988;28;20026;-53
2022/04/02 11:23:13;;;;;;;2.95;1.90;;;7.80;99.90;;;;;;4994728;28;20439;-51
2022/04/02 11:25:49;;;;;;;2.47;1.95;;;7.80;99.90;;;;;;4994617;28;20031;-54
2022/04/02 11:28:20;;;;;;;2.20;1.70;;;8.00;99.90;;;;;;4994500;28;20113;-51
2022/04/02 11:30:59;;;;;;;2.47;1.63;;;8.20;99.90;;;;;;4994377;28;20030;-54
2022/04/02 11:33:26;;;;;;;1.65;1.40;;;8.20;99.90;;;;;;4994743;28;20030;-54
2022/04/02 11:35:56;;;;;;;1.40;1.30;;;8.40;99.90;;;;;;4994506;28;20488;-54
2022/04/02 11:38:24;;;;;;;2.05;1.35;;;8.40;99.90;;;;;;4994744;28;20022;-49
2022/04/02 11:41:07;;;;;;;1.80;1.15;;;8.50;99.90;;;;;;4994288;28;20473;-54
2022/04/02 11:43:38;;;;;;;1.83;1.30;;;8.70;99.90;;;;;;4994292;28;20030;-52
2022/04/02 11:46:11;;;;;;;1.48;1.35;;;9.00;99.90;;;;;;4994082;28;20109;-52
2022/04/02 11:48:49;;;;;;;2.27;1.70;;;9.40;99.90;;;;;;4994410;28;20573;-52
2022/04/02 11:51:20;;;;;;;1.83;1.45;;;9.50;99.90;;;;;;4994478;28;20031;-55
2022/04/02 11:53:47;;;;;;;1.60;1.23;;;9.70;99.90;;;;;;4994297;28;20026;-55
2022/04/02 11:56:29;;;;;;;2.03;1.30;;;9.90;99.90;;;;;;4994224;28;20050;-53
2022/04/02 11:59:18;;;;;;;1.90;1.15;;;9.70;99.90;;;;;;4993964;28;20022;-52
2022/04/02 12:01:48;;;;;;;3.22;1.90;;;9.60;99.90;;;;;;4991033;28;20445;-52
2022/04/02 12:04:16;;;;;;;2.58;2.00;;;9.60;99.90;;;;;;4994108;28;20045;-51
2022/04/02 12:06:47;;;;;;;1.70;1.60;;;9.50;99.90;;;;;;4994033;28;20074;-54
2022/04/02 12:09:26;;;;;;;2.97;2.30;;;9.30;99.90;;;;;;4993574;28;20535;-55
2022/04/02 12:11:55;;;;;;;3.08;2.35;;;9.60;99.90;;;;;;4994291;28;20462;-56
2022/04/02 12:14:27;;;;;;;3.97;2.25;;;10.50;99.90;;;;;;4993658;28;20046;-52
2022/04/02 12:17:00;;;;;;;3.50;2.58;;;11.10;99.90;;;;;;4993738;28;20053;-54
2022/04/02 12:19:40;;;;;;;2.90;2.30;;;11.70;99.90;;;;;;4994169;28;20539;-53
2022/04/02 12:22:39;;;;;;;4.40;3.00;;;12.20;99.90;;;;;;4994185;28;20027;-51
2022/04/02 12:25:10;;;;;;;6.30;4.60;;;12.70;99.90;;;;;;4989882;28;20104;-53
2022/04/02 12:27:39;;;;;;;4.45;3.00;;;13.20;99.90;;;;;;4993727;28;20480;-55
2022/04/02 12:30:09;;;;;;;3.25;2.50;;;13.60;99.90;;;;;;4993798;28;20050;-51
2022/04/02 12:32:44;;;;;;;2.58;1.92;;;13.50;97.70;;;;;;4993740;28;20473;-54
2022/04/02 12:35:24;;;;;;;4.13;2.28;;;13.30;99.30;;;;;;4994041;28;20030;-57
2022/04/02 12:37:53;;;;;;;3.10;2.42;;;13.20;99.90;;;;;;4993854;28;20023;-54
2022/04/02 12:40:27;;;;;;;2.90;2.70;;;13.10;99.90;;;;;;4993999;28;20037;-53
2022/04/02 12:42:55;;;;;;;3.70;2.10;;;13.50;99.10;;;;;;4993650;28;20419;-52
2022/04/02 12:45:26;;;;;;;3.28;2.30;;;13.50;93.70;;;;;;4993902;28;20076;-54
2022/04/02 12:47:59;;;;;;;2.63;2.00;;;14.00;93.50;;;;;;4993934;28;20022;-54
2022/04/02 12:50:25;;;;;;;;;;;13.60;88.10;;;;;;4994055;28;20042;-53
2022/04/02 12:52:51;;;;;;;4.18;2.30;;;13.90;93.00;;;;;;4993606;28;20269;-57
2022/04/02 12:55:28;;;;;;;2.47;1.77;;;14.00;92.70;;;;;;4993506;28;20033;-55
2022/04/02 12:57:58;;;;;;;2.30;1.77;;;13.90;90.60;;;;;;4993639;28;20469;-57